sensor_id;sensor_type;location;lat;lon;timestamp;pressure;altitude;pressure_sealevel;temperature;humidity
22572;BME280;11452;53.368;14.658;2024-03-23T00:56:16;100166.03;;;9.41;100.00
22572;BME280;11452;53.368;14.658;2024-03-23T01:01:21;100161.45;;;9.35;100.00
22572;BME280;11452;53.368;14.658;2024-03-23T01:06:27;100152.86;;;9.30;100.00
22572;BME280;11452;53.368;14.658;2024-03-23T01:11:33;100144.00;;;9.30;100.00
22572;BME280;11452;53.368;14.658;2024-03-23T01:16:39;100141.07;;;9.27;100.00
22572;BME280;11452;53.368;14.658;2024-03-23T01:21:45;100132.78;;;9.25;100.00
22572;BME280;11452;53.368;14.658;2024-03-23T01:26:51;100133.25;;;9.24;100.00
22572;BME280;11452;53.368;14.658;2024-03-23T01:31:56;100135.06;;;9.24;100.00
22572;BME280;11452;53.368;14.658;2024-03-23T01:37:02;100128.66;;;9.19;100.00
22572;BME280;11452;53.368;14.658;2024-03-23T01:42:09;100138.17;;;9.16;100.00
22572;BME280;11452;53.368;14.658;2024-03-23T01:47:15;100138.17;;;9.16;100.00
22572;BME280;11452;53.368;14.658;2024-03-23T01:52:21;100138.27;;;9.15;100.00
22572;BME280;11452;53.368;14.658;2024-03-23T01:57:27;100133.97;;;9.12;100.00
22572;BME280;11452;53.368;14.658;2024-03-23T02:02:32;100124.08;;;9.07;100.00
22572;BME280;11452;53.368;14.658;2024-03-23T02:07:39;100121.13;;;9.05;100.00
22572;BME280;11452;53.368;14.658;2024-03-23T02:12:45;100118.07;;;9.03;100.00
22572;BME280;11452;53.368;14.658;2024-03-23T02:17:51;100116.27;;;9.04;100.00
22572;BME280;11452;53.368;14.658;2024-03-23T02:22:57;100106.82;;;8.98;100.00
22572;BME280;11452;53.368;14.658;2024-03-23T02:28:02;100105.37;;;8.93;100.00
22572;BME280;11452;53.368;14.658;2024-03-23T02:33:08;100101.37;;;8.86;100.00
22572;BME280;11452;53.368;14.658;2024-03-23T02:38:14;100093.94;;;8.84;100.00
22572;BME280;11452;53.368;14.658;2024-03-23T02:43:20;100077.92;;;8.77;100.00
22572;BME280;11452;53.368;14.658;2024-03-23T02:48:25;100071.05;;;8.73;100.00
22572;BME280;11452;53.368;14.658;2024-03-23T02:53:31;100062.42;;;8.69;100.00
22572;BME280;11452;53.368;14.658;2024-03-23T02:58:37;100060.87;;;8.65;100.00
22572;BME280;11452;53.368;14.658;2024-03-23T03:03:43;100048.98;;;8.63;100.00
22572;BME280;11452;53.368;14.658;2024-03-23T03:08:49;100057.05;;;8.62;100.00
22572;BME280;11452;53.368;14.658;2024-03-23T03:13:55;100044.30;;;8.60;100.00
22572;BME280;11452;53.368;14.658;2024-03-23T03:19:00;100028.41;;;8.58;100.00
22572;BME280;11452;53.368;14.658;2024-03-23T03:24:07;100028.80;;;8.59;100.00
22572;BME280;11452;53.368;14.658;2024-03-23T03:29:12;100024.89;;;8.58;100.00
22572;BME280;11452;53.368;14.658;2024-03-23T03:34:18;100017.55;;;8.54;100.00
22572;BME280;11452;53.368;14.658;2024-03-23T03:39:24;100008.52;;;8.50;100.00
22572;BME280;11452;53.368;14.658;2024-03-23T03:44:30;100014.89;;;8.47;100.00
22572;BME280;11452;53.368;14.658;2024-03-23T03:49:36;100004.23;;;8.47;100.00
22572;BME280;11452;53.368;14.658;2024-03-23T03:54:42;100005.19;;;8.46;100.00
22572;BME280;11452;53.368;14.658;2024-03-23T03:59:48;99989.30;;;8.45;100.00
22572;BME280;11452;53.368;14.658;2024-03-23T04:04:53;99989.65;;;8.39;100.00
22572;BME280;11452;53.368;14.658;2024-03-23T04:09:59;99990.12;;;8.38;100.00
22572;BME280;11452;53.368;14.658;2024-03-23T04:15:05;99992.40;;;8.37;100.00
22572;BME280;11452;53.368;14.658;2024-03-23T04:20:11;99988.70;;;8.32;100.00
22572;BME280;11452;53.368;14.658;2024-03-23T04:25:18;99984.97;;;8.35;100.00
22572;BME280;11452;53.368;14.658;2024-03-23T04:30:24;99982.81;;;8.35;100.00
22572;BME280;11452;53.368;14.658;2024-03-23T04:35:32;99976.16;;;8.35;100.00
22572;BME280;11452;53.368;14.658;2024-03-23T04:40:37;99966.84;;;8.35;100.00
22572;BME280;11452;53.368;14.658;2024-03-23T04:45:43;99972.43;;;8.37;100.00
22572;BME280;11452;53.368;14.658;2024-03-23T04:50:49;99967.48;;;8.38;100.00
22572;BME280;11452;53.368;14.658;2024-03-23T04:55:58;99968.26;;;8.40;100.00
22572;BME280;11452;53.368;14.658;2024-03-23T05:01:04;99954.36;;;8.35;100.00
22572;BME280;11452;53.368;14.658;2024-03-23T05:06:09;99955.66;;;8.28;100.00
22572;BME280;11452;53.368;14.658;2024-03-23T05:11:15;99946.73;;;8.29;100.00
22572;BME280;11452;53.368;14.658;2024-03-23T05:16:21;99945.39;;;8.29;100.00
22572;BME280;11452;53.368;14.658;2024-03-23T05:21:27;99944.00;;;8.38;100.00
22572;BME280;11452;53.368;14.658;2024-03-23T05:26:35;99941.57;;;8.49;100.00
22572;BME280;11452;53.368;14.658;2024-03-23T05:31:41;99938.42;;;8.56;100.00
22572;BME280;11452;53.368;14.658;2024-03-23T05:36:46;99934.54;;;8.62;100.00
22572;BME280;11452;53.368;14.658;2024-03-23T05:41:53;99933.00;;;8.58;100.00
22572;BME280;11452;53.368;14.658;2024-03-23T05:46:59;99937.48;;;8.50;100.00
22572;BME280;11452;53.368;14.658;2024-03-23T05:52:05;99931.47;;;8.54;100.00
22572;BME280;11452;53.368;14.658;2024-03-23T05:57:10;99933.20;;;8.62;100.00
22572;BME280;11452;53.368;14.658;2024-03-23T06:02:16;99927.20;;;8.73;100.00
22572;BME280;11452;53.368;14.658;2024-03-23T06:07:22;99920.07;;;8.73;100.00
22572;BME280;11452;53.368;14.658;2024-03-23T06:12:28;99927.13;;;8.67;100.00
22572;BME280;11452;53.368;14.658;2024-03-23T06:17:34;99914.77;;;8.66;100.00
22572;BME280;11452;53.368;14.658;2024-03-23T06:22:39;99908.74;;;8.91;100.00
22572;BME280;11452;53.368;14.658;2024-03-23T06:27:45;99909.11;;;9.13;100.00
22572;BME280;11452;53.368;14.658;2024-03-23T06:32:50;99896.02;;;9.37;100.00
22572;BME280;11452;53.368;14.658;2024-03-23T06:37:57;99884.96;;;9.43;100.00
22572;BME280;11452;53.368;14.658;2024-03-23T06:43:03;99897.24;;;9.46;100.00
22572;BME280;11452;53.368;14.658;2024-03-23T06:48:10;99899.19;;;9.63;100.00
22572;BME280;11452;53.368;14.658;2024-03-23T06:53:16;99909.98;;;9.75;100.00
22572;BME280;11452;53.368;14.658;2024-03-23T06:58:23;99908.00;;;9.71;100.00
22572;BME280;11452;53.368;14.658;2024-03-23T07:03:29;99897.78;;;9.51;100.00
22572;BME280;11452;53.368;14.658;2024-03-23T07:08:34;99876.31;;;9.32;100.00
22572;BME280;11452;53.368;14.658;2024-03-23T07:13:40;99878.97;;;9.32;100.00
22572;BME280;11452;53.368;14.658;2024-03-23T07:18:45;99876.20;;;9.41;100.00
22572;BME280;11452;53.368;14.658;2024-03-23T07:23:51;99870.34;;;9.49;100.00
22572;BME280;11452;53.368;14.658;2024-03-23T07:28:57;99861.83;;;9.63;100.00
22572;BME280;11452;53.368;14.658;2024-03-23T07:34:03;99865.66;;;9.79;100.00
22572;BME280;11452;53.368;14.658;2024-03-23T07:39:10;99859.66;;;9.95;100.00
22572;BME280;11452;53.368;14.658;2024-03-23T07:44:16;99859.84;;;9.99;100.00
22572;BME280;11452;53.368;14.658;2024-03-23T07:49:22;99846.31;;;9.95;100.00
22572;BME280;11452;53.368;14.658;2024-03-23T07:54:28;99835.84;;;10.25;100.00
22572;BME280;11452;53.368;14.658;2024-03-23T07:59:34;99829.86;;;10.47;100.00
22572;BME280;11452;53.368;14.658;2024-03-23T08:04:39;99830.11;;;10.62;100.00
22572;BME280;11452;53.368;14.658;2024-03-23T08:09:45;99826.34;;;10.95;100.00
22572;BME280;11452;53.368;14.658;2024-03-23T08:14:51;99812.47;;;11.80;100.00
22572;BME280;11452;53.368;14.658;2024-03-23T08:19:56;99793.20;;;12.32;100.00
22572;BME280;11452;53.368;14.658;2024-03-23T08:25:02;99777.45;;;12.95;100.00
22572;BME280;11452;53.368;14.658;2024-03-23T08:30:09;99780.14;;;12.95;100.00
22572;BME280;11452;53.368;14.658;2024-03-23T08:35:15;99776.84;;;12.86;100.00
22572;BME280;11452;53.368;14.658;2024-03-23T08:40:20;99772.37;;;12.75;98.73
22572;BME280;11452;53.368;14.658;2024-03-23T08:45:26;99764.78;;;12.86;97.83
22572;BME280;11452;53.368;14.658;2024-03-23T08:50:32;99765.06;;;12.43;95.69
22572;BME280;11452;53.368;14.658;2024-03-23T08:55:38;99755.03;;;11.90;96.61
22572;BME280;11452;53.368;14.658;2024-03-23T09:00:44;99757.39;;;11.35;95.83
22572;BME280;11452;53.368;14.658;2024-03-23T09:05:50;99767.88;;;11.09;96.76
22572;BME280;11452;53.368;14.658;2024-03-23T09:10:56;99761.19;;;11.09;96.50
22572;BME280;11452;53.368;14.658;2024-03-23T09:16:02;99758.44;;;11.22;96.90
22572;BME280;11452;53.368;14.658;2024-03-23T09:21:12;99755.95;;;11.37;96.05
22572;BME280;11452;53.368;14.658;2024-03-23T09:26:20;99753.08;;;11.51;96.55
22572;BME280;11452;53.368;14.658;2024-03-23T09:31:25;99745.98;;;11.68;96.42
22572;BME280;11452;53.368;14.658;2024-03-23T09:36:31;99753.72;;;11.95;95.85
22572;BME280;11452;53.368;14.658;2024-03-23T09:41:37;99754.59;;;12.18;96.38
22572;BME280;11452;53.368;14.658;2024-03-23T09:46:42;99733.17;;;12.35;95.64
22572;BME280;11452;53.368;14.658;2024-03-23T09:51:48;99730.69;;;12.71;94.63
22572;BME280;11452;53.368;14.658;2024-03-23T09:56:55;99723.34;;;12.84;95.11
22572;BME280;11452;53.368;14.658;2024-03-23T10:02:05;99718.80;;;12.41;91.64
22572;BME280;11452;53.368;14.658;2024-03-23T10:07:17;99721.47;;;11.97;92.69
22572;BME280;11452;53.368;14.658;2024-03-23T10:12:24;99741.62;;;11.14;92.93
22572;BME280;11452;53.368;14.658;2024-03-23T10:17:29;99753.11;;;10.18;92.01
22572;BME280;11452;53.368;14.658;2024-03-23T10:22:37;99744.58;;;9.42;92.07
22572;BME280;11452;53.368;14.658;2024-03-23T10:27:43;99742.34;;;9.29;93.92
22572;BME280;11452;53.368;14.658;2024-03-23T10:32:49;99737.90;;;9.02;94.13
22572;BME280;11452;53.368;14.658;2024-03-23T10:37:56;99742.91;;;8.87;95.16
22572;BME280;11452;53.368;14.658;2024-03-23T10:43:04;99739.83;;;8.66;95.39
22572;BME280;11452;53.368;14.658;2024-03-23T10:48:10;99747.69;;;8.34;96.66
22572;BME280;11452;53.368;14.658;2024-03-23T10:53:16;99731.78;;;8.47;97.68
22572;BME280;11452;53.368;14.658;2024-03-23T10:58:28;99713.19;;;8.66;98.63
22572;BME280;11452;53.368;14.658;2024-03-23T11:03:36;99712.09;;;8.76;98.77
22572;BME280;11452;53.368;14.658;2024-03-23T11:08:42;99714.41;;;8.95;98.39
22572;BME280;11452;53.368;14.658;2024-03-23T11:13:52;99727.80;;;9.08;98.80
22572;BME280;11452;53.368;14.658;2024-03-23T11:19:35;99726.58;;;8.99;97.56
22572;BME280;11452;53.368;14.658;2024-03-23T11:24:41;99728.95;;;9.23;98.10
22572;BME280;11452;53.368;14.658;2024-03-23T11:29:47;99739.19;;;9.49;98.62
22572;BME280;11452;53.368;14.658;2024-03-23T11:34:53;99743.55;;;9.50;96.40
22572;BME280;11452;53.368;14.658;2024-03-23T11:39:59;99734.48;;;9.40;96.66
22572;BME280;11452;53.368;14.658;2024-03-23T11:45:08;99739.27;;;9.35;96.71
22572;BME280;11452;53.368;14.658;2024-03-23T11:50:20;99738.66;;;9.44;95.92
22572;BME280;11452;53.368;14.658;2024-03-23T11:55:25;99742.74;;;9.62;95.32
22572;BME280;11452;53.368;14.658;2024-03-23T12:00:31;99749.04;;;9.74;93.64
22572;BME280;11452;53.368;14.658;2024-03-23T12:05:37;99740.25;;;9.79;92.74
22572;BME280;11452;53.368;14.658;2024-03-23T12:11:04;99750.92;;;9.92;93.47
22572;BME280;11452;53.368;14.658;2024-03-23T12:16:14;99753.81;;;10.01;93.60
22572;BME280;11452;53.368;14.658;2024-03-23T12:21:20;99766.55;;;10.03;94.63
22572;BME280;11452;53.368;14.658;2024-03-23T12:26:27;99762.72;;;9.82;94.26
22572;BME280;11452;53.368;14.658;2024-03-23T12:31:33;99770.20;;;9.57;93.64
22572;BME280;11452;53.368;14.658;2024-03-23T12:36:38;99771.84;;;9.53;95.15
22572;BME280;11452;53.368;14.658;2024-03-23T12:41:44;99757.80;;;9.63;94.72
22572;BME280;11452;53.368;14.658;2024-03-23T12:46:50;99765.08;;;9.67;94.85
22572;BME280;11452;53.368;14.658;2024-03-23T12:51:56;99759.13;;;9.63;95.43
22572;BME280;11452;53.368;14.658;2024-03-23T12:57:02;99760.39;;;9.58;94.61
22572;BME280;11452;53.368;14.658;2024-03-23T13:02:08;99762.89;;;9.66;95.52
22572;BME280;11452;53.368;14.658;2024-03-23T13:07:14;99764.73;;;9.91;95.20
22572;BME280;11452;53.368;14.658;2024-03-23T13:12:20;99773.05;;;10.32;95.19
22572;BME280;11452;53.368;14.658;2024-03-23T13:17:27;99772.00;;;10.53;94.90
22572;BME280;11452;53.368;14.658;2024-03-23T13:22:33;99770.25;;;10.64;94.29
22572;BME280;11452;53.368;14.658;2024-03-23T13:27:41;99768.65;;;10.62;92.70
22572;BME280;11452;53.368;14.658;2024-03-23T13:32:46;99771.38;;;10.86;93.45
22572;BME280;11452;53.368;14.658;2024-03-23T13:37:52;99768.17;;;10.81;92.60
22572;BME280;11452;53.368;14.658;2024-03-23T13:42:58;99774.35;;;10.94;92.60
22572;BME280;11452;53.368;14.658;2024-03-23T13:48:04;99774.03;;;11.04;92.04
22572;BME280;11452;53.368;14.658;2024-03-23T13:53:13;99770.08;;;10.91;91.95
22572;BME280;11452;53.368;14.658;2024-03-23T13:58:19;99758.80;;;10.99;92.14
22572;BME280;11452;53.368;14.658;2024-03-23T14:03:25;99759.44;;;11.26;92.63
22572;BME280;11452;53.368;14.658;2024-03-23T14:08:32;99767.33;;;11.57;91.53
22572;BME280;11452;53.368;14.658;2024-03-23T14:13:39;99777.10;;;12.10;91.18
22572;BME280;11452;53.368;14.658;2024-03-23T14:18:47;99780.56;;;12.40;89.43
22572;BME280;11452;53.368;14.658;2024-03-23T14:23:52;99780.07;;;12.40;88.48
22572;BME280;11452;53.368;14.658;2024-03-23T14:28:59;99775.45;;;12.42;88.78
22572;BME280;11452;53.368;14.658;2024-03-23T14:34:05;99770.69;;;12.57;87.72
22572;BME280;11452;53.368;14.658;2024-03-23T14:39:11;99773.36;;;12.52;88.45
22572;BME280;11452;53.368;14.658;2024-03-23T14:44:17;99769.94;;;12.27;87.95
22572;BME280;11452;53.368;14.658;2024-03-23T14:49:23;99772.48;;;12.12;88.07
22572;BME280;11452;53.368;14.658;2024-03-23T14:54:29;99769.20;;;12.03;87.54
22572;BME280;11452;53.368;14.658;2024-03-23T14:59:35;99771.77;;;12.04;88.03
22572;BME280;11452;53.368;14.658;2024-03-23T15:04:42;99775.55;;;12.19;88.16
22572;BME280;11452;53.368;14.658;2024-03-23T15:09:48;99776.65;;;12.22;85.63
22572;BME280;11452;53.368;14.658;2024-03-23T15:14:53;99784.53;;;12.01;85.84
22572;BME280;11452;53.368;14.658;2024-03-23T15:20:00;99789.77;;;12.02;85.84
22572;BME280;11452;53.368;14.658;2024-03-23T15:25:07;99787.09;;;11.67;86.55
22572;BME280;11452;53.368;14.658;2024-03-23T15:30:13;99787.64;;;11.25;86.64
22572;BME280;11452;53.368;14.658;2024-03-23T15:35:19;99794.36;;;10.88;87.61
22572;BME280;11452;53.368;14.658;2024-03-23T15:40:26;99804.19;;;10.69;88.10
22572;BME280;11452;53.368;14.658;2024-03-23T15:45:32;99806.11;;;10.36;88.94
22572;BME280;11452;53.368;14.658;2024-03-23T15:50:38;99824.76;;;9.98;90.02
22572;BME280;11452;53.368;14.658;2024-03-23T15:55:44;99832.59;;;9.62;91.12
22572;BME280;11452;53.368;14.658;2024-03-23T16:00:56;99810.93;;;9.27;90.85
22572;BME280;11452;53.368;14.658;2024-03-23T16:06:03;99795.72;;;8.88;91.43
22572;BME280;11452;53.368;14.658;2024-03-23T16:11:09;99800.01;;;8.76;93.82
22572;BME280;11452;53.368;14.658;2024-03-23T16:16:15;99800.83;;;8.91;95.18
22572;BME280;11452;53.368;14.658;2024-03-23T16:21:20;99791.89;;;8.51;94.81
22572;BME280;11452;53.368;14.658;2024-03-23T16:26:26;99786.59;;;7.99;94.96
22572;BME280;11452;53.368;14.658;2024-03-23T16:31:33;99796.97;;;7.53;95.19
22572;BME280;11452;53.368;14.658;2024-03-23T16:36:39;99788.91;;;7.09;96.44
22572;BME280;11452;53.368;14.658;2024-03-23T16:41:45;99794.50;;;6.73;96.91
22572;BME280;11452;53.368;14.658;2024-03-23T16:46:50;99793.22;;;6.48;97.82
22572;BME280;11452;53.368;14.658;2024-03-23T16:51:56;99784.89;;;6.39;98.45
22572;BME280;11452;53.368;14.658;2024-03-23T16:57:02;99789.63;;;6.25;99.19
22572;BME280;11452;53.368;14.658;2024-03-23T17:02:08;99780.84;;;6.32;100.00
22572;BME280;11452;53.368;14.658;2024-03-23T17:07:15;99778.34;;;6.37;100.00
22572;BME280;11452;53.368;14.658;2024-03-23T17:12:21;99780.03;;;6.47;100.00
22572;BME280;11452;53.368;14.658;2024-03-23T17:17:27;99791.45;;;6.56;100.00
22572;BME280;11452;53.368;14.658;2024-03-23T17:22:33;99810.87;;;6.65;100.00
22572;BME280;11452;53.368;14.658;2024-03-23T17:27:38;99833.70;;;6.76;100.00
22572;BME280;11452;53.368;14.658;2024-03-23T17:32:45;99847.19;;;6.65;100.00
22572;BME280;11452;53.368;14.658;2024-03-23T17:37:50;99869.58;;;6.35;100.00
22572;BME280;11452;53.368;14.658;2024-03-23T17:42:56;99881.49;;;6.10;100.00
22572;BME280;11452;53.368;14.658;2024-03-23T17:48:05;99875.69;;;5.85;100.00
22572;BME280;11452;53.368;14.658;2024-03-23T17:53:11;99863.74;;;5.76;100.00
22572;BME280;11452;53.368;14.658;2024-03-23T17:58:16;99847.63;;;5.72;100.00
22572;BME280;11452;53.368;14.658;2024-03-23T18:03:22;99845.97;;;5.61;100.00
22572;BME280;11452;53.368;14.658;2024-03-23T18:08:28;99855.70;;;5.35;100.00
22572;BME280;11452;53.368;14.658;2024-03-23T18:13:34;99862.31;;;5.07;100.00
22572;BME280;11452;53.368;14.658;2024-03-23T18:18:39;99873.71;;;4.91;100.00
22572;BME280;11452;53.368;14.658;2024-03-23T18:23:48;99851.28;;;4.70;100.00
22572;BME280;11452;53.368;14.658;2024-03-23T18:28:54;99851.28;;;4.70;100.00
22572;BME280;11452;53.368;14.658;2024-03-23T18:34:00;99843.02;;;4.20;100.00
22572;BME280;11452;53.368;14.658;2024-03-23T18:39:06;99843.68;;;4.15;100.00
22572;BME280;11452;53.368;14.658;2024-03-23T18:44:12;99843.68;;;4.15;100.00
22572;BME280;11452;53.368;14.658;2024-03-23T18:49:17;99847.38;;;4.11;100.00
22572;BME280;11452;53.368;14.658;2024-03-23T18:54:23;99860.48;;;3.94;100.00
22572;BME280;11452;53.368;14.658;2024-03-23T18:59:29;99860.48;;;3.94;100.00
22572;BME280;11452;53.368;14.658;2024-03-23T19:04:35;99855.98;;;3.96;100.00
22572;BME280;11452;53.368;14.658;2024-03-23T19:09:40;99842.91;;;4.03;100.00
22572;BME280;11452;53.368;14.658;2024-03-23T19:14:46;99828.88;;;4.21;100.00
22572;BME280;11452;53.368;14.658;2024-03-23T19:19:52;99804.63;;;4.78;100.00
22572;BME280;11452;53.368;14.658;2024-03-23T19:25:01;99804.63;;;4.78;100.00
22572;BME280;11452;53.368;14.658;2024-03-23T19:30:11;99808.13;;;4.78;100.00
22572;BME280;11452;53.368;14.658;2024-03-23T19:35:17;99810.20;;;4.72;100.00
22572;BME280;11452;53.368;14.658;2024-03-23T19:40:22;99832.36;;;4.50;100.00
22572;BME280;11452;53.368;14.658;2024-03-23T19:45:28;99832.36;;;4.50;100.00
22572;BME280;11452;53.368;14.658;2024-03-23T19:50:36;99840.41;;;4.39;100.00
22572;BME280;11452;53.368;14.658;2024-03-23T19:55:42;99838.06;;;4.23;100.00
22572;BME280;11452;53.368;14.658;2024-03-23T20:00:48;99840.77;;;4.11;100.00
22572;BME280;11452;53.368;14.658;2024-03-23T20:06:00;99850.51;;;4.00;100.00
22572;BME280;11452;53.368;14.658;2024-03-23T20:11:06;99853.47;;;3.93;100.00
22572;BME280;11452;53.368;14.658;2024-03-23T20:16:12;99833.94;;;3.87;100.00
22572;BME280;11452;53.368;14.658;2024-03-23T20:21:17;99827.25;;;3.78;100.00
22572;BME280;11452;53.368;14.658;2024-03-23T20:26:23;99833.13;;;3.74;100.00
22572;BME280;11452;53.368;14.658;2024-03-23T20:31:29;99829.39;;;3.70;100.00
22572;BME280;11452;53.368;14.658;2024-03-23T20:36:36;99834.92;;;3.64;100.00
22572;BME280;11452;53.368;14.658;2024-03-23T20:41:42;99834.98;;;3.62;100.00
22572;BME280;11452;53.368;14.658;2024-03-23T20:46:48;99838.55;;;3.61;100.00
22572;BME280;11452;53.368;14.658;2024-03-23T20:51:54;99840.48;;;3.68;100.00
22572;BME280;11452;53.368;14.658;2024-03-23T20:56:59;99839.92;;;3.90;100.00
22572;BME280;11452;53.368;14.658;2024-03-23T21:02:06;99839.63;;;3.88;100.00
22572;BME280;11452;53.368;14.658;2024-03-23T21:07:11;99832.27;;;3.94;100.00
22572;BME280;11452;53.368;14.658;2024-03-23T21:12:17;99828.78;;;3.83;100.00
22572;BME280;11452;53.368;14.658;2024-03-23T21:17:23;99830.09;;;3.73;100.00
22572;BME280;11452;53.368;14.658;2024-03-23T21:22:28;99825.22;;;3.64;100.00
22572;BME280;11452;53.368;14.658;2024-03-23T21:27:34;99822.83;;;3.58;100.00
22572;BME280;11452;53.368;14.658;2024-03-23T21:32:42;99822.31;;;3.50;100.00
22572;BME280;11452;53.368;14.658;2024-03-23T21:37:51;99824.80;;;3.43;100.00
22572;BME280;11452;53.368;14.658;2024-03-23T21:42:57;99825.84;;;3.39;100.00
22572;BME280;11452;53.368;14.658;2024-03-23T21:48:03;99817.18;;;3.35;100.00
22572;BME280;11452;53.368;14.658;2024-03-23T21:53:09;99816.41;;;3.33;100.00
22572;BME280;11452;53.368;14.658;2024-03-23T21:58:15;99810.67;;;3.34;100.00
22572;BME280;11452;53.368;14.658;2024-03-23T22:03:21;99809.94;;;3.30;100.00
22572;BME280;11452;53.368;14.658;2024-03-23T22:08:27;99811.04;;;3.25;100.00
22572;BME280;11452;53.368;14.658;2024-03-23T22:13:33;99815.06;;;3.23;100.00
22572;BME280;11452;53.368;14.658;2024-03-23T22:18:39;99793.48;;;3.13;100.00
22572;BME280;11452;53.368;14.658;2024-03-23T22:23:44;99800.48;;;3.15;100.00
22572;BME280;11452;53.368;14.658;2024-03-23T22:28:50;99813.33;;;3.12;100.00
22572;BME280;11452;53.368;14.658;2024-03-23T22:33:55;99794.92;;;3.10;100.00
22572;BME280;11452;53.368;14.658;2024-03-23T22:39:01;99792.00;;;3.06;100.00
22572;BME280;11452;53.368;14.658;2024-03-23T22:44:08;99792.92;;;3.05;100.00
22572;BME280;11452;53.368;14.658;2024-03-23T22:49:15;99788.16;;;3.03;100.00
22572;BME280;11452;53.368;14.658;2024-03-23T22:54:20;99788.56;;;3.04;100.00
22572;BME280;11452;53.368;14.658;2024-03-23T22:59:26;99798.72;;;3.03;100.00
22572;BME280;11452;53.368;14.658;2024-03-23T23:04:31;99798.95;;;2.97;100.00
22572;BME280;11452;53.368;14.658;2024-03-23T23:09:38;99789.02;;;2.94;100.00
22572;BME280;11452;53.368;14.658;2024-03-23T23:14:44;99778.58;;;2.91;100.00
22572;BME280;11452;53.368;14.658;2024-03-23T23:19:50;99780.41;;;2.89;100.00
22572;BME280;11452;53.368;14.658;2024-03-23T23:24:56;99782.31;;;2.85;100.00
22572;BME280;11452;53.368;14.658;2024-03-23T23:30:08;99779.84;;;2.81;100.00
22572;BME280;11452;53.368;14.658;2024-03-23T23:35:09;99777.42;;;2.76;100.00
22572;BME280;11452;53.368;14.658;2024-03-23T23:40:14;99777.59;;;2.71;100.00
22572;BME280;11452;53.368;14.658;2024-03-23T23:45:20;99786.96;;;2.78;100.00
22572;BME280;11452;53.368;14.658;2024-03-23T23:50:26;99781.22;;;2.91;100.00
22572;BME280;11452;53.368;14.658;2024-03-23T23:55:31;99771.80;;;3.05;100.00
